createdAt,value
2018-01-15T00:00:03.489Z,1.80
2018-01-15T00:02:31.148Z,1.80
2018-01-15T00:04:58.791Z,1.80
2018-01-15T00:07:26.414Z,1.80
2018-01-15T00:09:54.827Z,1.80
2018-01-15T00:12:22.572Z,1.80
2018-01-15T00:14:50.193Z,1.80
2018-01-15T00:17:17.841Z,1.80
2018-01-15T00:19:45.472Z,1.80
2018-01-15T00:22:13.800Z,1.80
2018-01-15T00:24:42.184Z,1.80
2018-01-15T00:27:09.875Z,1.80
2018-01-15T00:29:37.484Z,1.80
2018-01-15T00:32:05.155Z,1.80
2018-01-15T00:34:32.763Z,1.80
2018-01-15T00:37:00.425Z,1.80
2018-01-15T00:39:28.040Z,1.80
2018-01-15T00:41:55.673Z,1.80
2018-01-15T00:44:23.328Z,1.70
2018-01-15T00:46:50.951Z,1.70
2018-01-15T00:51:52.636Z,1.60
2018-01-15T00:54:20.275Z,1.60
2018-01-15T00:56:47.902Z,1.70
2018-01-15T00:59:15.547Z,1.60
2018-01-15T01:01:43.186Z,1.60
2018-01-15T01:04:10.833Z,1.50
2018-01-15T01:06:38.472Z,1.50
2018-01-15T01:09:06.139Z,1.60
2018-01-15T01:11:33.798Z,1.60
2018-01-15T01:14:01.453Z,1.60
2018-01-15T01:16:29.083Z,1.60
2018-01-15T01:18:57.476Z,1.70
2018-01-15T01:21:25.863Z,1.60
2018-01-15T01:26:27.320Z,1.60
2018-01-15T01:28:54.936Z,1.60
2018-01-15T01:31:22.579Z,1.70
2018-01-15T01:33:50.197Z,1.70
2018-01-15T01:36:18.595Z,1.80
2018-01-15T01:38:46.237Z,1.80
2018-01-15T01:41:13.843Z,1.70
2018-01-15T01:43:41.467Z,1.80
2018-01-15T01:46:09.116Z,1.80
2018-01-15T01:48:36.723Z,1.80
2018-01-15T01:53:38.360Z,1.80
2018-01-15T01:58:39.998Z,1.80
2018-01-15T02:01:07.629Z,1.80
2018-01-15T02:03:35.286Z,1.80
2018-01-15T02:06:02.892Z,1.80
2018-01-15T02:08:31.266Z,1.70
2018-01-15T02:10:58.882Z,1.70
2018-01-15T02:13:26.511Z,1.70
2018-01-15T02:15:54.140Z,1.70
2018-01-15T02:18:21.787Z,1.60
2018-01-15T02:20:49.399Z,1.60
2018-01-15T02:23:17.010Z,1.70
2018-01-15T02:25:44.702Z,1.70
2018-01-15T02:28:12.360Z,1.80
2018-01-15T02:30:39.990Z,1.90
2018-01-15T02:33:07.674Z,2.00
2018-01-15T02:35:35.280Z,2.10
2018-01-15T02:38:02.990Z,2.20
2018-01-15T02:40:30.622Z,2.30
2018-01-15T02:42:58.240Z,2.30
2018-01-15T02:45:25.922Z,2.40
2018-01-15T02:47:53.666Z,2.40
2018-01-15T02:50:21.326Z,2.40
2018-01-15T02:52:49.287Z,2.40
2018-01-15T02:55:16.932Z,2.40
2018-01-15T02:57:44.619Z,2.40
2018-01-15T03:00:15.540Z,2.40
2018-01-15T03:02:44.576Z,2.40
2018-01-15T03:05:12.231Z,2.40
2018-01-15T03:07:40.577Z,2.50
2018-01-15T03:10:08.218Z,2.60
2018-01-15T03:12:35.842Z,2.70
2018-01-15T03:15:03.491Z,2.80
2018-01-15T03:17:31.958Z,2.90
2018-01-15T03:19:59.582Z,2.90
2018-01-15T03:22:27.231Z,3.00
2018-01-15T03:24:54.862Z,3.00
2018-01-15T03:27:23.375Z,3.20
2018-01-15T03:29:51.103Z,3.20
2018-01-15T03:32:18.826Z,3.20
2018-01-15T03:34:46.427Z,3.30
2018-01-15T03:37:14.806Z,3.40
2018-01-15T03:39:43.180Z,3.40
2018-01-15T03:42:11.923Z,3.40
2018-01-15T03:44:39.657Z,3.40
2018-01-15T03:47:07.310Z,3.30
2018-01-15T03:49:34.926Z,3.20
2018-01-15T03:52:02.687Z,3.10
2018-01-15T03:54:30.907Z,3.00
2018-01-15T03:57:00.171Z,3.00
2018-01-15T03:59:28.669Z,2.90
2018-01-15T04:01:57.108Z,2.90
2018-01-15T04:04:24.912Z,2.80
2018-01-15T04:06:53.963Z,2.90
2018-01-15T04:09:24.282Z,2.90
2018-01-15T04:11:51.917Z,2.80
2018-01-15T04:14:20.789Z,2.90
2018-01-15T04:16:48.512Z,2.90
2018-01-15T04:19:21.498Z,2.90
2018-01-15T04:21:51.025Z,2.90
2018-01-15T04:24:20.160Z,2.90
2018-01-15T04:26:56.400Z,3.00
2018-01-15T04:29:24.705Z,3.00
2018-01-15T04:31:53.935Z,3.10
2018-01-15T04:34:28.531Z,3.10
2018-01-15T04:36:56.879Z,3.10
2018-01-15T04:39:25.892Z,3.10
2018-01-15T04:41:54.813Z,3.10
2018-01-15T04:44:22.432Z,3.10
2018-01-15T04:46:51.045Z,3.10
2018-01-15T04:49:18.735Z,3.10
2018-01-15T04:51:46.354Z,3.20
2018-01-15T04:54:14.921Z,3.10
2018-01-15T04:56:42.572Z,3.20
2018-01-15T04:59:10.820Z,3.20
2018-01-15T05:01:39.250Z,3.20
2018-01-15T05:04:07.151Z,3.20
2018-01-15T05:06:37.140Z,3.30
2018-01-15T05:09:05.621Z,3.30
2018-01-15T05:11:33.239Z,3.30
2018-01-15T05:14:00.943Z,3.30
2018-01-15T05:16:29.236Z,3.40
2018-01-15T05:21:30.970Z,3.40
2018-01-15T05:23:58.665Z,3.40
2018-01-15T05:26:27.133Z,3.40
2018-01-15T05:28:57.877Z,3.50
2018-01-15T05:31:26.332Z,3.40
2018-01-15T05:33:53.947Z,3.40
2018-01-15T05:36:21.566Z,3.40
2018-01-15T05:38:49.208Z,3.40
2018-01-15T05:41:16.899Z,3.40
2018-01-15T05:43:44.579Z,3.40
2018-01-15T05:46:12.235Z,3.40
2018-01-15T05:48:39.908Z,3.50
2018-01-15T05:51:08.605Z,3.60
2018-01-15T05:53:36.242Z,3.60
2018-01-15T05:56:03.922Z,3.70
2018-01-15T05:58:31.639Z,3.80
2018-01-15T06:01:01.046Z,3.80
2018-01-15T06:03:28.670Z,3.80
2018-01-15T06:05:56.355Z,3.90
2018-01-15T06:08:25.713Z,4.00
2018-01-15T06:10:53.363Z,4.00
2018-01-15T06:13:20.999Z,4.10
2018-01-15T06:15:48.606Z,4.10
2018-01-15T06:18:17.460Z,4.20
2018-01-15T06:20:45.059Z,4.20
2018-01-15T06:23:12.673Z,4.20
2018-01-15T06:25:40.309Z,4.20
2018-01-15T06:28:07.966Z,4.20
2018-01-15T06:30:35.588Z,4.20
2018-01-15T06:33:03.181Z,4.30
2018-01-15T06:35:30.804Z,4.30
2018-01-15T06:37:59.193Z,4.30
2018-01-15T06:40:26.890Z,4.30
2018-01-15T06:45:29.335Z,4.40
2018-01-15T06:48:00.179Z,4.40
2018-01-15T06:50:27.821Z,4.40
2018-01-15T06:52:56.219Z,4.40
2018-01-15T06:55:25.377Z,4.40
2018-01-15T06:57:54.775Z,4.40
2018-01-15T07:03:19.701Z,4.40
2018-01-15T07:05:51.584Z,4.40
2018-01-15T07:11:14.726Z,4.50
2018-01-15T07:13:43.038Z,4.50
2018-01-15T07:16:10.566Z,4.50
2018-01-15T07:18:38.079Z,4.50
2018-01-15T07:21:06.385Z,4.40
2018-01-15T07:23:33.918Z,4.40
2018-01-15T07:26:01.580Z,4.40
2018-01-15T07:28:29.086Z,4.40
2018-01-15T07:30:56.659Z,4.40
2018-01-15T07:33:24.182Z,4.50
2018-01-15T07:35:51.691Z,4.50
2018-01-15T07:38:19.299Z,4.60
2018-01-15T07:40:46.843Z,4.60
2018-01-15T07:43:14.358Z,4.60
2018-01-15T07:45:41.870Z,4.70
2018-01-15T07:48:09.467Z,4.60
2018-01-15T07:50:36.982Z,4.70
2018-01-15T07:53:04.483Z,4.60
2018-01-15T07:55:32.109Z,4.60
2018-01-15T07:57:59.649Z,4.60
2018-01-15T08:00:27.175Z,4.70
2018-01-15T08:02:54.708Z,4.70
2018-01-15T08:05:22.266Z,4.70
2018-01-15T08:07:49.778Z,4.80
2018-01-15T08:10:18.059Z,4.80
2018-01-15T08:12:45.620Z,4.80
2018-01-15T08:15:13.143Z,4.90
2018-01-15T08:17:40.652Z,4.90
2018-01-15T08:20:08.926Z,5.00
2018-01-15T08:22:37.230Z,5.00
2018-01-15T08:25:04.877Z,5.00
2018-01-15T08:27:32.424Z,5.00
2018-01-15T08:29:59.971Z,5.00
2018-01-15T08:32:27.487Z,5.10
2018-01-15T08:37:28.882Z,5.20
2018-01-15T08:39:56.485Z,5.30
2018-01-15T08:42:24.027Z,5.30
2018-01-15T08:44:51.536Z,5.30
2018-01-15T08:47:19.087Z,5.30
2018-01-15T08:49:46.626Z,5.40
2018-01-15T08:52:14.202Z,5.40
2018-01-15T08:54:41.950Z,5.60
2018-01-15T08:57:09.495Z,5.60
2018-01-15T08:59:36.994Z,5.60
2018-01-15T09:02:05.292Z,5.80
2018-01-15T09:04:32.799Z,5.70
2018-01-15T09:07:01.096Z,5.80
2018-01-15T09:09:28.641Z,5.80
2018-01-15T09:11:56.179Z,5.90
2018-01-15T09:14:23.701Z,5.90
2018-01-15T09:16:51.212Z,5.90
2018-01-15T09:19:18.735Z,5.90
2018-01-15T09:21:46.260Z,6.00
2018-01-15T09:24:13.793Z,6.00
2018-01-15T09:26:41.335Z,6.10
2018-01-15T09:29:08.860Z,6.10
2018-01-15T09:31:36.424Z,6.20
2018-01-15T09:34:03.942Z,6.20
2018-01-15T09:36:31.514Z,6.30
2018-01-15T09:38:59.019Z,6.20
2018-01-15T09:41:27.323Z,6.40
2018-01-15T09:43:55.082Z,6.40
2018-01-15T09:46:22.606Z,6.50
2018-01-15T09:48:50.114Z,6.60
2018-01-15T09:51:18.635Z,6.70
2018-01-15T09:53:46.164Z,6.70
2018-01-15T09:56:13.686Z,6.70
2018-01-15T09:58:41.248Z,6.80
2018-01-15T10:01:08.800Z,6.90
2018-01-15T10:03:36.334Z,7.00
2018-01-15T10:06:03.886Z,7.10
2018-01-15T10:08:31.423Z,7.10
2018-01-15T10:10:58.936Z,7.10
2018-01-15T10:13:26.507Z,7.20
2018-01-15T10:15:54.021Z,7.20
2018-01-15T10:18:21.527Z,7.30
2018-01-15T10:20:49.042Z,7.40
2018-01-15T10:23:16.591Z,7.40
2018-01-15T10:25:44.119Z,7.40
2018-01-15T10:28:11.677Z,7.40
2018-01-15T10:30:39.182Z,7.40
2018-01-15T10:33:06.698Z,7.40
2018-01-15T10:35:34.294Z,7.50
2018-01-15T10:38:01.811Z,7.50
2018-01-15T10:40:29.335Z,7.60
2018-01-15T10:42:57.612Z,7.60
2018-01-15T10:45:25.183Z,7.60
2018-01-15T10:47:52.736Z,7.60
2018-01-15T10:50:20.249Z,7.50
2018-01-15T10:52:47.819Z,7.50
2018-01-15T10:55:15.366Z,7.60
2018-01-15T10:57:42.914Z,7.70
2018-01-15T11:00:10.424Z,7.70
2018-01-15T11:02:37.994Z,7.80
2018-01-15T11:05:05.515Z,7.90
2018-01-15T11:07:33.026Z,7.90
2018-01-15T11:10:01.347Z,7.90
2018-01-15T11:12:28.863Z,7.90
2018-01-15T11:14:56.433Z,8.00
2018-01-15T11:17:23.945Z,8.10
2018-01-15T11:19:51.533Z,8.10
2018-01-15T11:22:19.083Z,8.20
2018-01-15T11:24:46.599Z,8.20
2018-01-15T11:27:14.166Z,8.30
2018-01-15T11:29:41.707Z,8.30
2018-01-15T11:32:09.226Z,8.30
2018-01-15T11:34:36.943Z,8.30
2018-01-15T11:37:05.253Z,8.30
2018-01-15T11:39:32.766Z,8.30
2018-01-15T11:42:00.670Z,8.30
2018-01-15T11:44:28.179Z,8.20
2018-01-15T11:46:55.686Z,8.10
2018-01-15T11:49:23.974Z,8.20
2018-01-15T11:51:51.529Z,8.20
2018-01-15T11:54:19.042Z,8.20
2018-01-15T11:56:47.129Z,8.30
2018-01-15T11:59:14.667Z,8.30
2018-01-15T12:01:42.229Z,8.40
2018-01-15T12:04:09.743Z,8.40
2018-01-15T12:06:37.262Z,8.30
2018-01-15T12:09:05.563Z,8.30
2018-01-15T12:11:33.070Z,8.30
2018-01-15T12:14:01.480Z,8.30
2018-01-15T12:16:29.001Z,8.30
2018-01-15T12:18:56.517Z,8.40
2018-01-15T12:21:24.854Z,8.30
2018-01-15T12:23:52.566Z,8.30
2018-01-15T12:26:20.106Z,8.30
2018-01-15T12:28:47.607Z,8.30
2018-01-15T12:31:15.914Z,8.30
2018-01-15T12:33:43.422Z,8.30
2018-01-15T12:36:11.930Z,8.30
2018-01-15T12:38:39.469Z,8.30
2018-01-15T12:41:07.120Z,8.30
2018-01-15T12:43:34.635Z,8.30
2018-01-15T12:46:02.144Z,8.50
2018-01-15T12:48:29.754Z,8.40
2018-01-15T12:50:57.475Z,8.50
2018-01-15T12:53:24.979Z,8.50
2018-01-15T12:55:53.247Z,8.40
2018-01-15T12:58:21.526Z,8.40
2018-01-15T13:00:49.099Z,8.30
2018-01-15T13:03:16.645Z,8.30
2018-01-15T13:05:51.106Z,8.40
2018-01-15T13:08:31.386Z,8.20
2018-01-15T13:10:58.927Z,8.20
2018-01-15T13:13:26.585Z,8.30
2018-01-15T13:15:54.118Z,8.30
2018-01-15T13:18:21.670Z,8.40
2018-01-15T13:20:49.207Z,8.30
2018-01-15T13:23:16.789Z,8.10
2018-01-15T13:25:44.295Z,8.10
2018-01-15T13:28:11.825Z,8.00
2018-01-15T13:30:39.401Z,8.10
2018-01-15T13:33:06.934Z,8.10
2018-01-15T13:35:34.476Z,8.10
2018-01-15T13:38:01.994Z,8.20
2018-01-15T13:40:29.559Z,8.20
2018-01-15T13:42:57.062Z,8.30
2018-01-15T13:45:25.366Z,8.20
2018-01-15T13:47:53.105Z,8.20
2018-01-15T13:50:20.614Z,8.00
2018-01-15T13:52:48.914Z,7.90
2018-01-15T13:55:16.451Z,7.90
2018-01-15T13:57:44.858Z,7.80
2018-01-15T14:00:12.462Z,7.70
2018-01-15T14:02:39.974Z,7.70
2018-01-15T14:05:08.256Z,7.60
2018-01-15T14:07:35.793Z,7.60
2018-01-15T14:10:03.364Z,7.50
2018-01-15T14:12:30.875Z,7.50
2018-01-15T14:14:58.386Z,7.50
2018-01-15T14:17:25.988Z,7.50
2018-01-15T14:19:53.499Z,7.50
2018-01-15T14:22:21.019Z,7.40
2018-01-15T14:24:48.619Z,7.30
2018-01-15T14:27:16.162Z,7.30
2018-01-15T14:29:44.592Z,7.20
2018-01-15T14:32:13.599Z,7.00
2018-01-15T14:34:41.263Z,7.00
2018-01-15T14:37:08.892Z,7.10
2018-01-15T14:39:36.394Z,7.00
2018-01-15T14:42:04.713Z,6.90
2018-01-15T14:44:32.835Z,6.90
2018-01-15T14:47:00.342Z,6.80
2018-01-15T14:49:27.858Z,6.80
2018-01-15T14:51:55.389Z,6.80
2018-01-15T14:54:22.933Z,6.80
2018-01-15T14:56:50.434Z,6.80
2018-01-15T14:59:18.709Z,6.80
2018-01-15T15:01:46.272Z,6.80
2018-01-15T15:04:13.823Z,6.80
2018-01-15T15:06:41.366Z,6.90
2018-01-15T15:09:08.912Z,6.90
2018-01-15T15:11:36.557Z,7.00
2018-01-15T15:14:04.112Z,7.00
2018-01-15T15:16:31.640Z,6.90
2018-01-15T15:18:59.158Z,6.90
2018-01-15T15:21:26.826Z,6.90
2018-01-15T15:23:54.328Z,6.90
2018-01-15T15:26:23.522Z,6.80
2018-01-15T15:28:51.208Z,6.80
2018-01-15T15:31:18.717Z,6.80
2018-01-15T15:33:46.215Z,6.80
2018-01-15T15:36:13.721Z,6.70
2018-01-15T15:38:41.380Z,6.70
2018-01-15T15:41:08.919Z,6.70
2018-01-15T15:43:36.466Z,6.80
2018-01-15T15:46:03.998Z,6.80
2018-01-15T15:48:31.542Z,6.70
2018-01-15T15:50:59.046Z,6.70
2018-01-15T15:53:27.770Z,6.80
2018-01-15T15:55:55.280Z,6.80
2018-01-15T15:58:22.850Z,6.80
2018-01-15T16:00:50.380Z,7.00
2018-01-15T16:03:17.890Z,6.90
2018-01-15T16:05:46.150Z,6.90
2018-01-15T16:08:14.435Z,6.80
2018-01-15T16:10:41.971Z,6.80
2018-01-15T16:13:10.516Z,6.80
2018-01-15T16:15:38.823Z,6.80
2018-01-15T16:18:06.366Z,6.80
2018-01-15T16:20:33.860Z,6.70
2018-01-15T16:23:01.451Z,6.80
2018-01-15T16:25:28.998Z,6.80
2018-01-15T16:27:56.543Z,6.70
2018-01-15T16:30:24.097Z,6.70
2018-01-15T16:32:52.557Z,6.70
2018-01-15T16:35:20.073Z,6.70
2018-01-15T16:37:47.583Z,6.70
2018-01-15T16:40:15.124Z,6.60
2018-01-15T16:42:42.639Z,6.60
2018-01-15T16:45:10.162Z,6.70
2018-01-15T16:47:37.819Z,6.70
2018-01-15T16:50:11.509Z,6.70
2018-01-15T16:52:39.007Z,6.80
2018-01-15T16:55:07.413Z,6.70
2018-01-15T16:57:34.915Z,6.70
2018-01-15T17:00:02.426Z,6.70
2018-01-15T17:02:30.047Z,6.80
2018-01-15T17:04:57.558Z,6.80
2018-01-15T17:07:25.102Z,6.80
2018-01-15T17:09:52.663Z,6.80
2018-01-15T17:12:20.309Z,6.80
2018-01-15T17:14:47.826Z,6.90
2018-01-15T17:17:16.111Z,6.90
2018-01-15T17:19:43.610Z,6.90
2018-01-15T17:22:12.750Z,7.00
2018-01-15T17:24:40.291Z,7.00
2018-01-15T17:27:07.936Z,6.90
2018-01-15T17:29:35.450Z,6.90
2018-01-15T17:32:02.963Z,6.90
2018-01-15T17:34:31.237Z,6.80
2018-01-15T17:36:59.541Z,6.60
2018-01-15T17:39:27.084Z,6.60
2018-01-15T17:41:54.589Z,6.50
2018-01-15T17:44:22.096Z,6.60
2018-01-15T17:46:49.612Z,6.50
2018-01-15T17:49:17.161Z,6.40
2018-01-15T17:51:44.684Z,6.40
2018-01-15T17:54:12.183Z,6.30
2018-01-15T17:56:39.788Z,6.30
2018-01-15T17:59:07.302Z,6.20
2018-01-15T18:01:34.812Z,6.30
2018-01-15T18:04:02.407Z,6.30
2018-01-15T18:06:29.903Z,6.30
2018-01-15T18:08:57.529Z,6.30
2018-01-15T18:11:25.034Z,6.20
2018-01-15T18:13:52.585Z,6.20
2018-01-15T18:16:20.102Z,6.10
2018-01-15T18:18:47.780Z,6.30
2018-01-15T18:21:15.290Z,6.20
2018-01-15T18:23:43.589Z,6.30
2018-01-15T18:26:11.115Z,6.30
2018-01-15T18:28:38.618Z,6.30
2018-01-15T18:31:06.943Z,6.40
2018-01-15T18:33:34.579Z,6.30
2018-01-15T18:36:02.088Z,6.30
2018-01-15T18:38:29.594Z,6.20
2018-01-15T18:40:57.200Z,6.10
2018-01-15T18:43:24.754Z,5.90
2018-01-15T18:45:52.298Z,5.90
2018-01-15T18:48:19.796Z,5.80
2018-01-15T18:50:47.324Z,5.80
2018-01-15T18:53:14.921Z,5.70
2018-01-15T18:55:42.423Z,5.60
2018-01-15T18:58:10.694Z,5.50
2018-01-15T19:00:38.199Z,5.50
2018-01-15T19:03:05.910Z,5.50
2018-01-15T19:05:33.402Z,5.50
2018-01-15T19:08:01.670Z,5.50
2018-01-15T19:10:29.993Z,5.40
2018-01-15T19:12:57.494Z,5.40
2018-01-15T19:15:25.050Z,5.40
2018-01-15T19:17:52.552Z,5.50
2018-01-15T19:20:20.067Z,5.50
2018-01-15T19:22:47.584Z,5.50
2018-01-15T19:25:15.127Z,5.50
2018-01-15T19:27:42.637Z,5.60
2018-01-15T19:30:10.915Z,5.50
2018-01-15T19:32:38.422Z,5.50
2018-01-15T19:35:11.683Z,5.50
2018-01-15T19:37:43.038Z,5.50
2018-01-15T19:40:10.566Z,5.50
2018-01-15T19:42:38.066Z,5.50
2018-01-15T19:45:11.228Z,5.50
2018-01-15T19:47:44.378Z,5.60
2018-01-15T19:50:18.264Z,5.60
2018-01-15T19:52:51.445Z,5.60
2018-01-15T19:55:25.361Z,5.60
2018-01-15T19:57:58.915Z,5.60
2018-01-15T20:00:32.090Z,5.60
2018-01-15T20:03:05.371Z,5.60
2018-01-15T20:05:38.474Z,5.60
2018-01-15T20:08:11.746Z,5.70
2018-01-15T20:10:45.012Z,5.70
2018-01-15T20:13:13.286Z,5.70
2018-01-15T20:15:40.783Z,5.70
2018-01-15T20:18:08.282Z,5.70
2018-01-15T20:20:35.788Z,5.70
2018-01-15T20:23:04.074Z,5.80
2018-01-15T20:25:32.455Z,5.70
2018-01-15T20:27:59.968Z,5.80
2018-01-15T20:30:28.243Z,5.80
2018-01-15T20:32:56.507Z,5.80
2018-01-15T20:35:24.599Z,5.90
2018-01-15T20:37:52.124Z,5.90
2018-01-15T20:40:20.064Z,5.90
2018-01-15T20:42:50.030Z,5.90
2018-01-15T20:45:19.058Z,5.80
2018-01-15T20:56:24.035Z,5.70
2018-01-15T20:58:52.421Z,5.70
2018-01-15T21:01:20.513Z,5.60
2018-01-15T21:03:48.357Z,5.60
2018-01-15T21:06:16.899Z,5.60
2018-01-15T21:08:44.416Z,5.60
2018-01-15T21:11:12.713Z,5.60
2018-01-15T21:13:40.217Z,5.60
2018-01-15T21:16:08.518Z,5.60
2018-01-15T21:18:36.027Z,5.60
2018-01-15T21:21:04.299Z,5.60
2018-01-15T21:23:31.805Z,5.60
2018-01-15T21:25:59.308Z,5.60
2018-01-15T21:28:26.802Z,5.60
2018-01-15T21:30:55.119Z,5.70
2018-01-15T21:33:22.695Z,5.70
2018-01-15T21:35:50.205Z,5.70
2018-01-15T21:38:17.790Z,5.70
2018-01-15T21:40:45.300Z,5.70
2018-01-15T21:43:12.832Z,5.80
2018-01-15T21:45:40.335Z,5.80
2018-01-15T21:48:08.598Z,5.80
2018-01-15T21:50:37.007Z,5.80
2018-01-15T21:53:04.507Z,5.80
2018-01-15T21:55:32.802Z,5.80
2018-01-15T21:58:00.314Z,5.80
2018-01-15T22:00:28.594Z,5.80
2018-01-15T22:02:56.175Z,5.80
2018-01-15T22:05:23.675Z,5.80
2018-01-15T22:07:51.175Z,5.80
2018-01-15T22:10:18.703Z,5.90
2018-01-15T22:12:46.214Z,5.90
2018-01-15T22:15:13.711Z,5.90
2018-01-15T22:17:41.311Z,5.90
2018-01-15T22:20:08.814Z,5.90
2018-01-15T22:22:37.110Z,6.00
2018-01-15T22:27:56.247Z,6.00
2018-01-15T22:30:23.899Z,6.00
2018-01-15T22:32:51.407Z,6.00
2018-01-15T22:35:18.902Z,6.00
2018-01-15T22:37:46.403Z,6.00
2018-01-15T22:40:14.670Z,6.10
2018-01-15T22:42:42.263Z,6.10
2018-01-15T22:45:09.796Z,6.10
2018-01-15T22:47:37.296Z,6.10
2018-01-15T22:50:04.866Z,6.20
2018-01-15T22:52:32.410Z,6.20
2018-01-15T22:54:59.955Z,6.20
2018-01-15T22:57:27.455Z,6.20
2018-01-15T22:59:55.758Z,6.20
2018-01-15T23:02:23.264Z,6.20
2018-01-15T23:04:51.563Z,6.20
2018-01-15T23:07:19.074Z,6.20
2018-01-15T23:09:47.347Z,6.30
2018-01-15T23:12:14.869Z,6.20
2018-01-15T23:14:43.130Z,6.30
2018-01-15T23:17:11.390Z,6.40
2018-01-15T23:19:39.668Z,6.40
2018-01-15T23:22:07.236Z,6.40
2018-01-15T23:24:34.751Z,6.40
2018-01-15T23:27:02.319Z,6.40
2018-01-15T23:29:29.873Z,6.50
2018-01-15T23:31:57.407Z,6.50
2018-01-15T23:34:24.985Z,6.50
2018-01-15T23:36:52.522Z,6.50
2018-01-15T23:39:20.026Z,6.60
2018-01-15T23:41:47.590Z,6.60
2018-01-15T23:44:15.134Z,6.60
2018-01-15T23:46:42.667Z,6.60
2018-01-15T23:49:10.174Z,6.60
2018-01-15T23:51:38.454Z,6.70
2018-01-15T23:54:05.963Z,6.70
2018-01-15T23:56:33.474Z,6.70
2018-01-15T23:59:00.986Z,6.70
